YHM weather

John C. Munro Hamilton International Airport
Hamilton, Ontario, Canada

Public forecast

Using degrees Celsius for public forecast. Weather courtesy of forecast.io.

Current aviation weather report (METAR) for John C. Munro Hamilton International Airport

Retrieved 2019/11/19 15:21 UTC (0 seconds ago):

CYHM 191521Z 10002KT 10SM SCT009 OVC012 02/01 A2981 RMK SC3SC5 SLP105

Aviation forecast (TAF) for John C. Munro Hamilton International Airport

Retrieved 2019/11/19 12:42 UTC (2 hours ago):

TAF CYHM 191138Z 1912/2012 03005KT 1/2SM FG VV002 TEMPO 1912/1914 2SM BR OVC006 FM191400 04006KT 2SM BR OVC006 TEMPO 1914/1916 6SM BR OVC012 FM191600 06006KT P6SM SCT006 BKN015 FM192100 05005KT P6SM OVC015 FM200000 06005KT P6SM SCT006 OVC012 PROB30 2000/2003 2SM BR OVC006 FM200300 VRB03KT 2SM -DZ BR OVC005 PROB30 2003/2012 1/2SM FG VV002 RMK NXT FCST BY 191800Z